sensor_id;sensor_type;location;lat;lon;timestamp;pressure;altitude;pressure_sealevel;temperature;humidity
33859;BME280;20156;47.486;12.074;2023-02-20T00:02:22;95704.19;;;6.04;100.00
33859;BME280;20156;47.486;12.074;2023-02-20T00:04:47;95697.75;;;6.00;100.00
33859;BME280;20156;47.486;12.074;2023-02-20T00:07:13;95700.31;;;6.00;100.00
33859;BME280;20156;47.486;12.074;2023-02-20T00:09:38;95697.91;;;6.07;100.00
33859;BME280;20156;47.486;12.074;2023-02-20T00:12:04;95696.94;;;5.99;100.00
33859;BME280;20156;47.486;12.074;2023-02-20T00:14:29;95699.97;;;5.87;100.00
33859;BME280;20156;47.486;12.074;2023-02-20T00:16:55;95697.75;;;5.92;100.00
33859;BME280;20156;47.486;12.074;2023-02-20T00:19:20;95710.03;;;6.06;100.00
33859;BME280;20156;47.486;12.074;2023-02-20T00:21:47;95726.16;;;6.08;100.00
33859;BME280;20156;47.486;12.074;2023-02-20T00:24:14;95729.88;;;5.97;100.00
33859;BME280;20156;47.486;12.074;2023-02-20T00:26:48;95720.19;;;5.91;100.00
33859;BME280;20156;47.486;12.074;2023-02-20T00:29:19;95709.81;;;5.83;100.00
33859;BME280;20156;47.486;12.074;2023-02-20T00:31:56;95705.00;;;5.96;100.00
33859;BME280;20156;47.486;12.074;2023-02-20T00:34:25;95699.53;;;5.99;100.00
33859;BME280;20156;47.486;12.074;2023-02-20T00:36:50;95694.38;;;5.91;100.00
33859;BME280;20156;47.486;12.074;2023-02-20T00:39:16;95691.47;;;5.94;100.00
33859;BME280;20156;47.486;12.074;2023-02-20T00:41:41;95700.50;;;5.98;100.00
33859;BME280;20156;47.486;12.074;2023-02-20T00:44:07;95704.84;;;5.98;100.00
33859;BME280;20156;47.486;12.074;2023-02-20T00:46:32;95717.94;;;5.96;100.00
33859;BME280;20156;47.486;12.074;2023-02-20T00:48:58;95719.38;;;5.91;100.00
33859;BME280;20156;47.486;12.074;2023-02-20T00:51:23;95726.81;;;5.94;100.00
33859;BME280;20156;47.486;12.074;2023-02-20T00:53:49;95729.56;;;5.92;100.00
33859;BME280;20156;47.486;12.074;2023-02-20T00:56:14;95720.47;;;5.64;100.00
33859;BME280;20156;47.486;12.074;2023-02-20T00:58:40;95698.22;;;5.55;100.00
33859;BME280;20156;47.486;12.074;2023-02-20T01:01:06;95681.59;;;5.57;100.00
33859;BME280;20156;47.486;12.074;2023-02-20T01:03:31;95669.97;;;5.61;100.00
33859;BME280;20156;47.486;12.074;2023-02-20T01:05:57;95672.22;;;5.64;100.00
33859;BME280;20156;47.486;12.074;2023-02-20T01:08:22;95670.28;;;5.66;100.00
33859;BME280;20156;47.486;12.074;2023-02-20T01:10:48;95668.69;;;5.73;100.00
33859;BME280;20156;47.486;12.074;2023-02-20T01:13:13;95668.69;;;5.65;100.00
33859;BME280;20156;47.486;12.074;2023-02-20T01:15:39;95663.22;;;5.77;100.00
33859;BME280;20156;47.486;12.074;2023-02-20T01:18:04;95663.19;;;5.85;100.00
33859;BME280;20156;47.486;12.074;2023-02-20T01:20:30;95671.94;;;5.76;100.00
33859;BME280;20156;47.486;12.074;2023-02-20T01:22:56;95669.31;;;5.67;100.00
33859;BME280;20156;47.486;12.074;2023-02-20T01:25:22;95664.66;;;5.63;100.00
33859;BME280;20156;47.486;12.074;2023-02-20T01:27:47;95666.28;;;5.72;100.00
33859;BME280;20156;47.486;12.074;2023-02-20T01:30:13;95672.88;;;5.83;100.00
33859;BME280;20156;47.486;12.074;2023-02-20T01:32:39;95676.91;;;5.85;100.00
33859;BME280;20156;47.486;12.074;2023-02-20T01:35:04;95665.78;;;5.77;100.00
33859;BME280;20156;47.486;12.074;2023-02-20T01:37:30;95658.69;;;5.70;100.00
33859;BME280;20156;47.486;12.074;2023-02-20T01:39:56;95662.06;;;5.71;100.00
33859;BME280;20156;47.486;12.074;2023-02-20T01:42:23;95656.44;;;5.76;100.00
33859;BME280;20156;47.486;12.074;2023-02-20T01:44:49;95647.06;;;5.66;100.00
33859;BME280;20156;47.486;12.074;2023-02-20T01:47:19;95636.44;;;5.61;100.00
33859;BME280;20156;47.486;12.074;2023-02-20T01:49:57;95638.69;;;5.64;100.00
33859;BME280;20156;47.486;12.074;2023-02-20T01:52:29;95626.44;;;5.74;100.00
33859;BME280;20156;47.486;12.074;2023-02-20T01:55:34;95633.53;;;5.81;100.00
33859;BME280;20156;47.486;12.074;2023-02-20T01:57:54;95631.94;;;5.71;100.00
33859;BME280;20156;47.486;12.074;2023-02-20T02:00:21;95635.16;;;5.73;100.00
33859;BME280;20156;47.486;12.074;2023-02-20T02:02:57;95631.09;;;5.71;100.00
33859;BME280;20156;47.486;12.074;2023-02-20T02:05:25;95623.69;;;5.52;100.00
33859;BME280;20156;47.486;12.074;2023-02-20T02:07:53;95615.63;;;5.47;100.00
33859;BME280;20156;47.486;12.074;2023-02-20T02:10:23;95618.22;;;5.63;100.00
33859;BME280;20156;47.486;12.074;2023-02-20T02:12:52;95614.97;;;5.77;100.00
33859;BME280;20156;47.486;12.074;2023-02-20T02:15:22;95629.66;;;5.68;100.00
33859;BME280;20156;47.486;12.074;2023-02-20T02:40:27;95682.41;;;5.82;100.00
33859;BME280;20156;47.486;12.074;2023-02-20T02:45:55;95666.44;;;5.79;100.00
33859;BME280;20156;47.486;12.074;2023-02-20T02:48:30;95664.50;;;5.81;100.00
33859;BME280;20156;47.486;12.074;2023-02-20T02:51:06;95663.34;;;5.83;100.00
33859;BME280;20156;47.486;12.074;2023-02-20T02:53:33;95688.69;;;5.80;100.00
33859;BME280;20156;47.486;12.074;2023-02-20T02:55:59;95700.78;;;5.87;100.00
33859;BME280;20156;47.486;12.074;2023-02-20T02:58:44;95700.34;;;5.92;100.00
33859;BME280;20156;47.486;12.074;2023-02-20T03:01:10;95711.09;;;5.87;100.00
33859;BME280;20156;47.486;12.074;2023-02-20T03:03:37;95699.97;;;5.79;100.00
33859;BME280;20156;47.486;12.074;2023-02-20T03:08:44;95692.38;;;5.69;100.00
33859;BME280;20156;47.486;12.074;2023-02-20T03:11:17;95676.91;;;5.53;100.00
33859;BME280;20156;47.486;12.074;2023-02-20T03:14:10;95659.00;;;5.51;100.00
33859;BME280;20156;47.486;12.074;2023-02-20T03:20:00;95653.69;;;5.69;100.00
33859;BME280;20156;47.486;12.074;2023-02-20T03:22:57;95664.97;;;5.68;100.00
33859;BME280;20156;47.486;12.074;2023-02-20T03:25:30;95662.06;;;5.71;100.00
33859;BME280;20156;47.486;12.074;2023-02-20T03:28:06;95668.88;;;5.72;100.00
33859;BME280;20156;47.486;12.074;2023-02-20T03:33:11;95685.78;;;5.66;100.00
33859;BME280;20156;47.486;12.074;2023-02-20T03:35:56;95690.16;;;5.74;100.00
33859;BME280;20156;47.486;12.074;2023-02-20T03:38:46;95712.25;;;5.77;100.00
33859;BME280;20156;47.486;12.074;2023-02-20T03:41:34;95707.22;;;5.42;100.00
33859;BME280;20156;47.486;12.074;2023-02-20T03:44:21;95684.28;;;5.31;100.00
33859;BME280;20156;47.486;12.074;2023-02-20T03:46:49;95669.16;;;5.44;100.00
33859;BME280;20156;47.486;12.074;2023-02-20T03:49:19;95650.94;;;5.54;100.00
33859;BME280;20156;47.486;12.074;2023-02-20T03:51:46;95651.78;;;5.55;100.00
33859;BME280;20156;47.486;12.074;2023-02-20T03:54:11;95672.56;;;5.61;100.00
33859;BME280;20156;47.486;12.074;2023-02-20T03:56:43;95712.41;;;5.75;100.00
33859;BME280;20156;47.486;12.074;2023-02-20T03:59:21;95722.53;;;5.52;100.00
33859;BME280;20156;47.486;12.074;2023-02-20T04:01:51;95704.00;;;5.40;100.00
33859;BME280;20156;47.486;12.074;2023-02-20T04:04:27;95674.28;;;5.36;100.00
33859;BME280;20156;47.486;12.074;2023-02-20T04:06:55;95661.91;;;5.40;100.00
33859;BME280;20156;47.486;12.074;2023-02-20T04:09:25;95661.91;;;5.48;100.00
33859;BME280;20156;47.486;12.074;2023-02-20T04:12:04;95674.81;;;5.56;100.00
33859;BME280;20156;47.486;12.074;2023-02-20T04:14:32;95693.84;;;5.63;100.00
33859;BME280;20156;47.486;12.074;2023-02-20T04:17:05;95709.34;;;5.63;100.00
33859;BME280;20156;47.486;12.074;2023-02-20T04:19:32;95734.50;;;5.61;100.00
33859;BME280;20156;47.486;12.074;2023-02-20T04:22:01;95741.91;;;5.64;100.00
33859;BME280;20156;47.486;12.074;2023-02-20T04:24:43;95751.56;;;5.54;100.00
33859;BME280;20156;47.486;12.074;2023-02-20T04:27:12;95742.50;;;5.34;100.00
33859;BME280;20156;47.486;12.074;2023-02-20T04:29:38;95714.13;;;5.26;100.00
33859;BME280;20156;47.486;12.074;2023-02-20T04:32:04;95689.94;;;5.27;100.00
33859;BME280;20156;47.486;12.074;2023-02-20T04:34:30;95686.88;;;5.31;100.00
33859;BME280;20156;47.486;12.074;2023-02-20T04:37:16;95697.03;;;5.33;100.00
33859;BME280;20156;47.486;12.074;2023-02-20T04:39:46;95713.63;;;5.30;100.00
33859;BME280;20156;47.486;12.074;2023-02-20T04:42:11;95735.38;;;5.28;100.00
33859;BME280;20156;47.486;12.074;2023-02-20T04:44:37;95747.31;;;5.21;100.00
33859;BME280;20156;47.486;12.074;2023-02-20T04:47:06;95775.44;;;5.06;100.00
33859;BME280;20156;47.486;12.074;2023-02-20T04:49:32;95776.94;;;4.82;100.00
33859;BME280;20156;47.486;12.074;2023-02-20T04:51:58;95761.59;;;4.73;100.00
33859;BME280;20156;47.486;12.074;2023-02-20T04:54:23;95753.00;;;4.64;100.00
33859;BME280;20156;47.486;12.074;2023-02-20T04:56:49;95758.16;;;4.64;100.00
33859;BME280;20156;47.486;12.074;2023-02-20T04:59:15;95754.94;;;4.62;100.00
33859;BME280;20156;47.486;12.074;2023-02-20T05:01:40;95762.75;;;4.52;100.00
33859;BME280;20156;47.486;12.074;2023-02-20T05:04:07;95765.63;;;4.49;100.00
33859;BME280;20156;47.486;12.074;2023-02-20T05:06:32;95783.47;;;4.43;100.00
33859;BME280;20156;47.486;12.074;2023-02-20T05:08:58;95791.59;;;4.30;100.00
33859;BME280;20156;47.486;12.074;2023-02-20T05:11:23;95780.00;;;4.08;100.00
33859;BME280;20156;47.486;12.074;2023-02-20T05:13:49;95757.22;;;3.96;100.00
33859;BME280;20156;47.486;12.074;2023-02-20T05:16:14;95731.63;;;3.94;100.00
33859;BME280;20156;47.486;12.074;2023-02-20T05:18:40;95726.53;;;4.02;100.00
33859;BME280;20156;47.486;12.074;2023-02-20T05:21:05;95717.72;;;4.05;100.00
33859;BME280;20156;47.486;12.074;2023-02-20T05:23:49;95718.69;;;4.04;100.00
33859;BME280;20156;47.486;12.074;2023-02-20T05:26:20;95720.84;;;3.90;100.00
33859;BME280;20156;47.486;12.074;2023-02-20T05:28:46;95709.50;;;3.83;100.00
33859;BME280;20156;47.486;12.074;2023-02-20T05:31:12;95698.38;;;3.75;100.00
33859;BME280;20156;47.486;12.074;2023-02-20T05:33:37;95691.59;;;3.74;100.00
33859;BME280;20156;47.486;12.074;2023-02-20T05:36:04;95685.28;;;3.68;100.00
33859;BME280;20156;47.486;12.074;2023-02-20T05:38:29;95678.50;;;3.67;100.00
33859;BME280;20156;47.486;12.074;2023-02-20T05:40:55;95669.78;;;3.60;100.00
33859;BME280;20156;47.486;12.074;2023-02-20T05:43:20;95663.09;;;3.49;100.00
33859;BME280;20156;47.486;12.074;2023-02-20T05:45:46;95656.34;;;3.48;100.00
33859;BME280;20156;47.486;12.074;2023-02-20T05:48:11;95663.41;;;3.46;100.00
33859;BME280;20156;47.486;12.074;2023-02-20T05:50:37;95655.78;;;3.37;100.00
33859;BME280;20156;47.486;12.074;2023-02-20T05:53:03;95663.84;;;3.24;100.00
33859;BME280;20156;47.486;12.074;2023-02-20T05:55:28;95643.06;;;3.17;100.00
33859;BME280;20156;47.486;12.074;2023-02-20T05:57:55;95630.06;;;3.19;100.00
33859;BME280;20156;47.486;12.074;2023-02-20T06:00:21;95593.63;;;3.41;100.00
33859;BME280;20156;47.486;12.074;2023-02-20T06:02:46;95586.34;;;3.54;100.00
33859;BME280;20156;47.486;12.074;2023-02-20T06:05:12;95579.00;;;3.68;100.00
33859;BME280;20156;47.486;12.074;2023-02-20T06:07:37;95596.69;;;3.45;100.00
33859;BME280;20156;47.486;12.074;2023-02-20T06:10:03;95596.88;;;3.25;100.00
33859;BME280;20156;47.486;12.074;2023-02-20T06:12:29;95580.84;;;3.31;100.00
33859;BME280;20156;47.486;12.074;2023-02-20T06:14:54;95579.19;;;3.22;100.00
33859;BME280;20156;47.486;12.074;2023-02-20T06:17:20;95580.66;;;3.07;100.00
33859;BME280;20156;47.486;12.074;2023-02-20T06:19:45;95569.72;;;3.05;100.00
33859;BME280;20156;47.486;12.074;2023-02-20T06:22:11;95563.34;;;3.09;100.00
33859;BME280;20156;47.486;12.074;2023-02-20T06:24:36;95546.13;;;3.27;100.00
33859;BME280;20156;47.486;12.074;2023-02-20T06:27:01;95525.34;;;3.47;100.00
33859;BME280;20156;47.486;12.074;2023-02-20T06:29:27;95560.94;;;2.90;100.00
33859;BME280;20156;47.486;12.074;2023-02-20T06:31:53;95578.66;;;2.65;100.00
33859;BME280;20156;47.486;12.074;2023-02-20T06:34:21;95558.88;;;2.76;100.00
33859;BME280;20156;47.486;12.074;2023-02-20T06:36:50;95521.50;;;2.99;100.00
33859;BME280;20156;47.486;12.074;2023-02-20T06:39:15;95501.66;;;3.09;100.00
33859;BME280;20156;47.486;12.074;2023-02-20T06:41:41;95495.91;;;3.15;100.00
33859;BME280;20156;47.486;12.074;2023-02-20T06:44:07;95483.28;;;3.22;100.00
33859;BME280;20156;47.486;12.074;2023-02-20T06:46:32;95486.25;;;3.09;100.00
33859;BME280;20156;47.486;12.074;2023-02-20T06:48:58;95475.72;;;3.20;100.00
33859;BME280;20156;47.486;12.074;2023-02-20T06:51:29;95485.09;;;3.04;100.00
33859;BME280;20156;47.486;12.074;2023-02-20T06:53:55;95523.94;;;2.65;100.00
33859;BME280;20156;47.486;12.074;2023-02-20T06:56:24;95528.34;;;2.55;100.00
33859;BME280;20156;47.486;12.074;2023-02-20T06:58:51;95520.69;;;2.63;100.00
33859;BME280;20156;47.486;12.074;2023-02-20T07:01:18;95473.94;;;2.95;100.00
33859;BME280;20156;47.486;12.074;2023-02-20T07:03:45;95457.69;;;3.12;100.00
33859;BME280;20156;47.486;12.074;2023-02-20T07:06:11;95473.31;;;3.01;100.00
33859;BME280;20156;47.486;12.074;2023-02-20T07:08:36;95470.56;;;2.94;100.00
33859;BME280;20156;47.486;12.074;2023-02-20T07:11:02;95470.38;;;2.88;100.00
33859;BME280;20156;47.486;12.074;2023-02-20T07:13:28;95455.09;;;3.12;100.00
33859;BME280;20156;47.486;12.074;2023-02-20T07:15:53;95439.44;;;3.23;100.00
33859;BME280;20156;47.486;12.074;2023-02-20T07:18:19;95447.69;;;3.35;100.00
33859;BME280;20156;47.486;12.074;2023-02-20T07:20:48;95473.19;;;3.28;100.00
33859;BME280;20156;47.486;12.074;2023-02-20T07:23:14;95468.25;;;3.35;100.00
33859;BME280;20156;47.486;12.074;2023-02-20T07:25:39;95458.72;;;3.53;100.00
33859;BME280;20156;47.486;12.074;2023-02-20T07:28:04;95471.38;;;3.47;100.00
33859;BME280;20156;47.486;12.074;2023-02-20T07:30:32;95482.81;;;3.26;100.00
33859;BME280;20156;47.486;12.074;2023-02-20T07:32:58;95469.34;;;3.32;100.00
33859;BME280;20156;47.486;12.074;2023-02-20T07:35:23;95457.56;;;3.48;100.00
33859;BME280;20156;47.486;12.074;2023-02-20T07:37:48;95449.16;;;3.72;100.00
33859;BME280;20156;47.486;12.074;2023-02-20T07:40:14;95442.91;;;3.82;100.00
33859;BME280;20156;47.486;12.074;2023-02-20T07:42:39;95469.59;;;3.81;100.00
33859;BME280;20156;47.486;12.074;2023-02-20T07:45:05;95458.06;;;3.93;100.00
33859;BME280;20156;47.486;12.074;2023-02-20T07:47:30;95457.13;;;4.03;100.00
33859;BME280;20156;47.486;12.074;2023-02-20T07:49:56;95459.09;;;4.17;100.00
33859;BME280;20156;47.486;12.074;2023-02-20T07:52:21;95473.59;;;4.26;100.00
33859;BME280;20156;47.486;12.074;2023-02-20T07:54:46;95474.25;;;4.36;100.00
33859;BME280;20156;47.486;12.074;2023-02-20T07:57:13;95478.31;;;4.39;100.00
33859;BME280;20156;47.486;12.074;2023-02-20T07:59:39;95481.84;;;4.46;100.00
33859;BME280;20156;47.486;12.074;2023-02-20T08:02:05;95477.81;;;4.51;100.00
33859;BME280;20156;47.486;12.074;2023-02-20T08:04:31;95489.75;;;4.61;100.00
33859;BME280;20156;47.486;12.074;2023-02-20T08:06:56;95509.72;;;4.67;100.00
33859;BME280;20156;47.486;12.074;2023-02-20T08:09:21;95532.44;;;4.79;100.00
33859;BME280;20156;47.486;12.074;2023-02-20T08:11:47;95557.91;;;4.91;100.00
33859;BME280;20156;47.486;12.074;2023-02-20T08:14:13;95579.50;;;4.98;100.00
33859;BME280;20156;47.486;12.074;2023-02-20T08:16:39;95593.66;;;5.02;100.00
33859;BME280;20156;47.486;12.074;2023-02-20T08:19:04;95588.38;;;5.11;100.00
33859;BME280;20156;47.486;12.074;2023-02-20T08:21:29;95602.56;;;5.24;100.00
33859;BME280;20156;47.486;12.074;2023-02-20T08:23:55;95621.75;;;5.29;100.00
33859;BME280;20156;47.486;12.074;2023-02-20T08:26:21;95645.31;;;5.42;100.00
33859;BME280;20156;47.486;12.074;2023-02-20T08:28:47;95669.81;;;5.47;100.00
33859;BME280;20156;47.486;12.074;2023-02-20T08:31:13;95694.31;;;5.51;100.00
33859;BME280;20156;47.486;12.074;2023-02-20T08:33:38;95705.78;;;5.56;100.00
33859;BME280;20156;47.486;12.074;2023-02-20T08:36:04;95724.00;;;5.63;100.00
33859;BME280;20156;47.486;12.074;2023-02-20T08:38:32;95760.97;;;5.71;100.00
33859;BME280;20156;47.486;12.074;2023-02-20T08:41:03;95784.03;;;5.81;100.00
33859;BME280;20156;47.486;12.074;2023-02-20T08:43:29;95797.31;;;5.94;100.00
33859;BME280;20156;47.486;12.074;2023-02-20T08:45:54;95832.81;;;5.92;100.00
33859;BME280;20156;47.486;12.074;2023-02-20T08:48:20;95856.41;;;6.06;100.00
33859;BME280;20156;47.486;12.074;2023-02-20T08:50:46;95877.72;;;6.16;100.00
33859;BME280;20156;47.486;12.074;2023-02-20T08:53:13;95893.25;;;6.32;100.00
33859;BME280;20156;47.486;12.074;2023-02-20T08:55:39;95913.94;;;6.40;100.00
33859;BME280;20156;47.486;12.074;2023-02-20T08:58:04;95937.50;;;6.53;100.00
33859;BME280;20156;47.486;12.074;2023-02-20T09:00:30;95972.88;;;6.45;100.00
33859;BME280;20156;47.486;12.074;2023-02-20T09:02:55;95985.16;;;6.43;100.00
33859;BME280;20156;47.486;12.074;2023-02-20T09:05:21;95992.53;;;6.38;100.00
33859;BME280;20156;47.486;12.074;2023-02-20T09:07:47;95991.91;;;6.36;100.00
33859;BME280;20156;47.486;12.074;2023-02-20T09:10:12;95988.22;;;6.54;100.00
33859;BME280;20156;47.486;12.074;2023-02-20T09:12:38;95994.88;;;6.65;100.00
33859;BME280;20156;47.486;12.074;2023-02-20T09:15:08;96010.09;;;6.76;100.00
33859;BME280;20156;47.486;12.074;2023-02-20T09:17:33;96019.31;;;6.87;100.00
33859;BME280;20156;47.486;12.074;2023-02-20T09:19:59;96031.47;;;7.11;100.00
33859;BME280;20156;47.486;12.074;2023-02-20T09:22:25;96042.63;;;7.19;100.00
33859;BME280;20156;47.486;12.074;2023-02-20T09:24:52;96061.06;;;7.24;100.00
33859;BME280;20156;47.486;12.074;2023-02-20T09:27:19;96067.03;;;7.33;100.00
33859;BME280;20156;47.486;12.074;2023-02-20T09:29:45;96077.88;;;7.29;100.00
33859;BME280;20156;47.486;12.074;2023-02-20T09:32:11;96079.00;;;7.50;100.00
33859;BME280;20156;47.486;12.074;2023-02-20T09:34:37;96090.66;;;7.54;100.00
33859;BME280;20156;47.486;12.074;2023-02-20T09:37:02;96086.63;;;7.44;100.00
33859;BME280;20156;47.486;12.074;2023-02-20T09:39:29;96088.72;;;7.73;100.00
33859;BME280;20156;47.486;12.074;2023-02-20T09:44:36;96103.78;;;7.61;100.00
33859;BME280;20156;47.486;12.074;2023-02-20T09:49:57;96121.06;;;7.69;100.00
33859;BME280;20156;47.486;12.074;2023-02-20T09:52:24;96130.63;;;7.68;100.00
33859;BME280;20156;47.486;12.074;2023-02-20T09:54:57;96135.81;;;7.68;100.00
33859;BME280;20156;47.486;12.074;2023-02-20T09:57:26;96129.81;;;7.84;100.00
33859;BME280;20156;47.486;12.074;2023-02-20T09:59:58;96121.88;;;7.94;100.00
33859;BME280;20156;47.486;12.074;2023-02-20T10:02:32;96123.84;;;7.92;100.00
33859;BME280;20156;47.486;12.074;2023-02-20T10:05:02;96133.88;;;7.95;100.00
33859;BME280;20156;47.486;12.074;2023-02-20T10:07:35;96129.63;;;8.10;100.00
33859;BME280;20156;47.486;12.074;2023-02-20T10:10:22;96147.97;;;7.92;100.00
33859;BME280;20156;47.486;12.074;2023-02-20T10:21:17;96134.66;;;7.87;100.00
33859;BME280;20156;47.486;12.074;2023-02-20T10:23:56;96132.72;;;7.89;100.00
33859;BME280;20156;47.486;12.074;2023-02-20T10:26:32;96123.50;;;7.95;100.00
33859;BME280;20156;47.486;12.074;2023-02-20T10:29:13;96124.13;;;8.05;100.00
33859;BME280;20156;47.486;12.074;2023-02-20T10:31:47;96131.72;;;8.14;100.00
33859;BME280;20156;47.486;12.074;2023-02-20T10:34:28;96142.84;;;8.48;100.00
33859;BME280;20156;47.486;12.074;2023-02-20T10:37:01;96145.03;;;8.75;100.00
33859;BME280;20156;47.486;12.074;2023-02-20T10:39:29;96152.75;;;8.91;100.00
33859;BME280;20156;47.486;12.074;2023-02-20T10:42:04;96155.72;;;8.80;100.00
33859;BME280;20156;47.486;12.074;2023-02-20T10:47:31;96173.56;;;9.45;100.00
33859;BME280;20156;47.486;12.074;2023-02-20T10:52:58;96164.66;;;9.62;100.00
33859;BME280;20156;47.486;12.074;2023-02-20T10:55:38;96165.28;;;10.10;100.00
33859;BME280;20156;47.486;12.074;2023-02-20T10:58:12;96159.00;;;9.82;100.00
33859;BME280;20156;47.486;12.074;2023-02-20T11:00:42;96152.59;;;9.70;100.00
33859;BME280;20156;47.486;12.074;2023-02-20T11:03:15;96151.31;;;9.88;100.00
33859;BME280;20156;47.486;12.074;2023-02-20T11:05:50;96153.41;;;9.93;100.00
33859;BME280;20156;47.486;12.074;2023-02-20T11:08:17;96153.97;;;10.18;100.00
33859;BME280;20156;47.486;12.074;2023-02-20T11:10:47;96143.19;;;10.59;100.00
33859;BME280;20156;47.486;12.074;2023-02-20T11:13:16;96142.97;;;10.90;100.00
33859;BME280;20156;47.486;12.074;2023-02-20T11:15:43;96142.59;;;11.43;100.00
33859;BME280;20156;47.486;12.074;2023-02-20T11:18:31;96136.78;;;11.63;100.00
33859;BME280;20156;47.486;12.074;2023-02-20T11:20:59;96135.25;;;11.75;100.00
33859;BME280;20156;47.486;12.074;2023-02-20T11:23:39;96125.09;;;11.59;100.00
33859;BME280;20156;47.486;12.074;2023-02-20T11:26:32;96119.91;;;11.01;100.00
33859;BME280;20156;47.486;12.074;2023-02-20T11:29:10;96113.69;;;11.02;100.00
33859;BME280;20156;47.486;12.074;2023-02-20T11:31:37;96119.19;;;11.71;100.00
33859;BME280;20156;47.486;12.074;2023-02-20T11:34:04;96106.78;;;11.73;100.00
33859;BME280;20156;47.486;12.074;2023-02-20T11:36:44;96101.91;;;11.42;100.00
33859;BME280;20156;47.486;12.074;2023-02-20T11:39:27;96099.22;;;11.57;100.00
33859;BME280;20156;47.486;12.074;2023-02-20T11:42:31;96083.88;;;12.18;100.00
33859;BME280;20156;47.486;12.074;2023-02-20T11:45:20;96072.16;;;12.08;100.00
33859;BME280;20156;47.486;12.074;2023-02-20T11:48:11;96079.06;;;12.56;100.00
33859;BME280;20156;47.486;12.074;2023-02-20T11:50:57;96056.16;;;12.11;100.00
33859;BME280;20156;47.486;12.074;2023-02-20T11:53:31;96049.56;;;12.15;100.00
33859;BME280;20156;47.486;12.074;2023-02-20T11:58:39;96033.75;;;12.64;100.00
33859;BME280;20156;47.486;12.074;2023-02-20T12:01:05;96043.91;;;13.07;100.00
33859;BME280;20156;47.486;12.074;2023-02-20T12:03:33;96010.00;;;12.52;100.00
33859;BME280;20156;47.486;12.074;2023-02-20T12:06:45;96028.22;;;13.00;100.00
33859;BME280;20156;47.486;12.074;2023-02-20T12:08:53;96023.28;;;13.51;100.00
33859;BME280;20156;47.486;12.074;2023-02-20T12:11:23;95995.91;;;13.74;100.00
33859;BME280;20156;47.486;12.074;2023-02-20T12:13:51;95976.00;;;13.79;100.00
33859;BME280;20156;47.486;12.074;2023-02-20T12:24:29;95993.72;;;13.38;100.00
33859;BME280;20156;47.486;12.074;2023-02-20T12:27:00;95980.00;;;13.03;100.00
33859;BME280;20156;47.486;12.074;2023-02-20T12:32:19;95973.81;;;13.37;100.00
33859;BME280;20156;47.486;12.074;2023-02-20T12:40:28;95945.22;;;13.09;100.00
33859;BME280;20156;47.486;12.074;2023-02-20T12:46:23;95917.66;;;13.72;100.00
33859;BME280;20156;47.486;12.074;2023-02-20T12:56:56;95816.53;;;13.66;100.00
33859;BME280;20156;47.486;12.074;2023-02-20T12:59:34;95826.38;;;13.58;100.00
33859;BME280;20156;47.486;12.074;2023-02-20T13:02:30;95823.03;;;14.27;100.00
33859;BME280;20156;47.486;12.074;2023-02-20T13:04:59;95841.00;;;14.61;100.00
33859;BME280;20156;47.486;12.074;2023-02-20T13:07:32;95809.66;;;14.73;100.00
33859;BME280;20156;47.486;12.074;2023-02-20T13:12:38;95714.25;;;14.87;100.00
33859;BME280;20156;47.486;12.074;2023-02-20T13:17:50;95561.75;;;14.67;100.00
33859;BME280;20156;47.486;12.074;2023-02-20T13:20:30;95581.41;;;15.06;100.00
33859;BME280;20156;47.486;12.074;2023-02-20T13:25:49;95449.53;;;14.82;100.00
33859;BME280;20156;47.486;12.074;2023-02-20T13:31:09;95430.34;;;15.23;100.00
33859;BME280;20156;47.486;12.074;2023-02-20T13:33:35;95388.28;;;15.18;100.00
33859;BME280;20156;47.486;12.074;2023-02-20T13:36:03;95372.22;;;15.03;100.00
33859;BME280;20156;47.486;12.074;2023-02-20T13:38:29;95377.91;;;15.23;100.00
33859;BME280;20156;47.486;12.074;2023-02-20T13:53:41;95256.53;;;15.46;100.00
33859;BME280;20156;47.486;12.074;2023-02-20T13:56:22;95267.03;;;15.23;100.00
33859;BME280;20156;47.486;12.074;2023-02-20T13:58:50;95267.72;;;15.30;100.00
33859;BME280;20156;47.486;12.074;2023-02-20T14:01:16;95281.34;;;15.55;100.00
33859;BME280;20156;47.486;12.074;2023-02-20T14:03:42;95300.69;;;15.78;100.00
33859;BME280;20156;47.486;12.074;2023-02-20T14:08:37;95478.97;;;14.96;100.00
33859;BME280;20156;47.486;12.074;2023-02-20T14:11:10;95540.25;;;14.77;100.00
33859;BME280;20156;47.486;12.074;2023-02-20T14:13:38;95571.66;;;14.40;100.00
33859;BME280;20156;47.486;12.074;2023-02-20T14:16:43;95663.41;;;14.02;100.00
33859;BME280;20156;47.486;12.074;2023-02-20T14:19:20;95754.03;;;13.51;100.00
33859;BME280;20156;47.486;12.074;2023-02-20T14:21:46;95773.41;;;13.17;100.00
33859;BME280;20156;47.486;12.074;2023-02-20T14:24:22;95795.34;;;12.90;100.00
33859;BME280;20156;47.486;12.074;2023-02-20T14:26:49;95815.84;;;12.73;100.00
33859;BME280;20156;47.486;12.074;2023-02-20T14:29:28;95816.69;;;12.80;100.00
33859;BME280;20156;47.486;12.074;2023-02-20T14:31:55;95765.47;;;12.66;100.00
33859;BME280;20156;47.486;12.074;2023-02-20T14:42:15;95781.69;;;13.01;100.00
33859;BME280;20156;47.486;12.074;2023-02-20T14:44:42;95777.09;;;12.97;100.00
33859;BME280;20156;47.486;12.074;2023-02-20T14:47:16;95767.44;;;12.84;100.00
33859;BME280;20156;47.486;12.074;2023-02-20T14:49:43;95767.25;;;12.85;100.00
33859;BME280;20156;47.486;12.074;2023-02-20T14:54:35;95782.34;;;12.63;100.00
33859;BME280;20156;47.486;12.074;2023-02-20T14:57:02;95781.31;;;12.58;100.00
33859;BME280;20156;47.486;12.074;2023-02-20T14:59:36;95774.09;;;12.73;100.00
33859;BME280;20156;47.486;12.074;2023-02-20T15:02:20;95778.72;;;12.78;100.00